sensor_id;sensor_type;location;lat;lon;timestamp;P1;durP1;ratioP1;P2;durP2;ratioP2
39264;SDS011;42646;51.910;7.724;2023-03-23T00:08:16;8.32;;;4.20;;
39264;SDS011;42646;51.910;7.724;2023-03-23T00:10:50;7.95;;;4.25;;
39264;SDS011;42646;51.910;7.724;2023-03-23T00:13:19;7.28;;;4.13;;
39264;SDS011;42646;51.910;7.724;2023-03-23T00:15:47;7.43;;;3.92;;
39264;SDS011;42646;51.910;7.724;2023-03-23T00:18:17;8.38;;;4.00;;
39264;SDS011;42646;51.910;7.724;2023-03-23T00:21:38;6.93;;;3.72;;
39264;SDS011;42646;51.910;7.724;2023-03-23T00:24:08;7.28;;;3.95;;
39264;SDS011;42646;51.910;7.724;2023-03-23T00:26:39;7.40;;;4.03;;
39264;SDS011;42646;51.910;7.724;2023-03-23T00:29:07;7.38;;;3.58;;
39264;SDS011;42646;51.910;7.724;2023-03-23T00:31:40;8.05;;;3.58;;
39264;SDS011;42646;51.910;7.724;2023-03-23T00:34:13;6.93;;;3.80;;
39264;SDS011;42646;51.910;7.724;2023-03-23T00:36:45;5.63;;;3.58;;
39264;SDS011;42646;51.910;7.724;2023-03-23T00:48:18;5.43;;;3.47;;
39264;SDS011;42646;51.910;7.724;2023-03-23T00:50:46;5.65;;;3.50;;
39264;SDS011;42646;51.910;7.724;2023-03-23T00:53:14;6.22;;;3.70;;
39264;SDS011;42646;51.910;7.724;2023-03-23T00:55:42;7.30;;;3.83;;
39264;SDS011;42646;51.910;7.724;2023-03-23T00:58:09;7.93;;;4.25;;
39264;SDS011;42646;51.910;7.724;2023-03-23T01:00:37;7.07;;;4.03;;
39264;SDS011;42646;51.910;7.724;2023-03-23T01:03:04;6.25;;;4.20;;
39264;SDS011;42646;51.910;7.724;2023-03-23T01:12:11;8.05;;;4.03;;
39264;SDS011;42646;51.910;7.724;2023-03-23T01:14:38;5.97;;;3.63;;
39264;SDS011;42646;51.910;7.724;2023-03-23T01:17:08;6.75;;;3.83;;
39264;SDS011;42646;51.910;7.724;2023-03-23T01:19:35;6.30;;;3.45;;
39264;SDS011;42646;51.910;7.724;2023-03-23T01:22:03;5.60;;;3.42;;
39264;SDS011;42646;51.910;7.724;2023-03-23T01:24:30;6.18;;;3.60;;
39264;SDS011;42646;51.910;7.724;2023-03-23T01:26:58;6.63;;;3.70;;
39264;SDS011;42646;51.910;7.724;2023-03-23T01:29:31;5.82;;;3.33;;
39264;SDS011;42646;51.910;7.724;2023-03-23T01:31:58;6.30;;;3.45;;
39264;SDS011;42646;51.910;7.724;2023-03-23T01:34:24;7.30;;;3.55;;
39264;SDS011;42646;51.910;7.724;2023-03-23T01:36:52;5.85;;;3.35;;
39264;SDS011;42646;51.910;7.724;2023-03-23T01:39:19;6.03;;;3.78;;
39264;SDS011;42646;51.910;7.724;2023-03-23T01:41:46;6.93;;;3.58;;
39264;SDS011;42646;51.910;7.724;2023-03-23T01:47:24;6.60;;;3.63;;
39264;SDS011;42646;51.910;7.724;2023-03-23T01:49:53;6.63;;;3.70;;
39264;SDS011;42646;51.910;7.724;2023-03-23T01:52:20;7.55;;;3.25;;
39264;SDS011;42646;51.910;7.724;2023-03-23T01:54:56;5.55;;;3.53;;
39264;SDS011;42646;51.910;7.724;2023-03-23T01:57:24;5.30;;;3.15;;
39264;SDS011;42646;51.910;7.724;2023-03-23T01:59:56;5.45;;;3.15;;
39264;SDS011;42646;51.910;7.724;2023-03-23T02:02:40;8.70;;;3.20;;
39264;SDS011;42646;51.910;7.724;2023-03-23T02:05:14;7.38;;;3.30;;
39264;SDS011;42646;51.910;7.724;2023-03-23T02:16:03;6.47;;;3.30;;
39264;SDS011;42646;51.910;7.724;2023-03-23T02:18:42;7.18;;;3.08;;
39264;SDS011;42646;51.910;7.724;2023-03-23T02:21:44;5.47;;;2.90;;
39264;SDS011;42646;51.910;7.724;2023-03-23T02:24:43;5.03;;;2.90;;
39264;SDS011;42646;51.910;7.724;2023-03-23T02:27:23;4.60;;;2.88;;
39264;SDS011;42646;51.910;7.724;2023-03-23T02:38:44;5.13;;;2.90;;
39264;SDS011;42646;51.910;7.724;2023-03-23T02:41:18;3.80;;;2.53;;
39264;SDS011;42646;51.910;7.724;2023-03-23T02:43:48;4.80;;;2.50;;
39264;SDS011;42646;51.910;7.724;2023-03-23T02:46:16;5.00;;;2.55;;
39264;SDS011;42646;51.910;7.724;2023-03-23T02:48:47;6.93;;;2.50;;
39264;SDS011;42646;51.910;7.724;2023-03-23T02:52:07;4.57;;;2.40;;
39264;SDS011;42646;51.910;7.724;2023-03-23T02:55:02;5.07;;;2.45;;
39264;SDS011;42646;51.910;7.724;2023-03-23T02:57:32;4.72;;;2.45;;
39264;SDS011;42646;51.910;7.724;2023-03-23T03:00:01;5.13;;;2.58;;
39264;SDS011;42646;51.910;7.724;2023-03-23T03:02:34;5.18;;;2.60;;
39264;SDS011;42646;51.910;7.724;2023-03-23T03:05:07;4.35;;;2.33;;
39264;SDS011;42646;51.910;7.724;2023-03-23T03:08:30;3.95;;;2.40;;
39264;SDS011;42646;51.910;7.724;2023-03-23T03:12:22;4.53;;;2.25;;
39264;SDS011;42646;51.910;7.724;2023-03-23T03:14:58;4.60;;;2.50;;
39264;SDS011;42646;51.910;7.724;2023-03-23T03:17:34;5.20;;;2.42;;
39264;SDS011;42646;51.910;7.724;2023-03-23T03:20:06;3.28;;;2.10;;
39264;SDS011;42646;51.910;7.724;2023-03-23T03:22:37;4.93;;;2.30;;
39264;SDS011;42646;51.910;7.724;2023-03-23T03:25:09;3.90;;;2.20;;
39264;SDS011;42646;51.910;7.724;2023-03-23T03:30:17;4.45;;;2.00;;
39264;SDS011;42646;51.910;7.724;2023-03-23T03:35:19;5.72;;;2.35;;
39264;SDS011;42646;51.910;7.724;2023-03-23T03:37:49;4.35;;;2.25;;
39264;SDS011;42646;51.910;7.724;2023-03-23T03:40:17;4.65;;;2.10;;
39264;SDS011;42646;51.910;7.724;2023-03-23T03:42:47;4.43;;;2.00;;
39264;SDS011;42646;51.910;7.724;2023-03-23T03:45:14;4.60;;;2.10;;
39264;SDS011;42646;51.910;7.724;2023-03-23T03:47:44;3.45;;;2.05;;
39264;SDS011;42646;51.910;7.724;2023-03-23T03:50:11;4.55;;;1.98;;
39264;SDS011;42646;51.910;7.724;2023-03-23T03:52:38;4.45;;;2.10;;
39264;SDS011;42646;51.910;7.724;2023-03-23T03:55:06;3.75;;;2.30;;
39264;SDS011;42646;51.910;7.724;2023-03-23T03:57:37;4.23;;;2.30;;
39264;SDS011;42646;51.910;7.724;2023-03-23T04:00:06;4.60;;;2.10;;
39264;SDS011;42646;51.910;7.724;2023-03-23T04:02:41;3.70;;;2.20;;
39264;SDS011;42646;51.910;7.724;2023-03-23T04:05:09;6.28;;;2.40;;
39264;SDS011;42646;51.910;7.724;2023-03-23T04:07:37;4.40;;;2.22;;
39264;SDS011;42646;51.910;7.724;2023-03-23T04:10:05;3.97;;;2.38;;
39264;SDS011;42646;51.910;7.724;2023-03-23T04:12:34;4.18;;;2.35;;
39264;SDS011;42646;51.910;7.724;2023-03-23T04:15:31;4.00;;;2.25;;
39264;SDS011;42646;51.910;7.724;2023-03-23T04:17:58;4.07;;;2.35;;
39264;SDS011;42646;51.910;7.724;2023-03-23T04:20:28;2.80;;;1.90;;
39264;SDS011;42646;51.910;7.724;2023-03-23T04:22:56;5.85;;;2.70;;
39264;SDS011;42646;51.910;7.724;2023-03-23T04:25:24;3.95;;;2.28;;
39264;SDS011;42646;51.910;7.724;2023-03-23T04:27:53;3.70;;;2.05;;
39264;SDS011;42646;51.910;7.724;2023-03-23T04:33:08;5.10;;;2.50;;
39264;SDS011;42646;51.910;7.724;2023-03-23T04:35:41;5.32;;;2.40;;
39264;SDS011;42646;51.910;7.724;2023-03-23T04:38:37;4.00;;;2.03;;
39264;SDS011;42646;51.910;7.724;2023-03-23T04:41:12;3.42;;;2.22;;
39264;SDS011;42646;51.910;7.724;2023-03-23T04:44:05;3.58;;;2.20;;
39264;SDS011;42646;51.910;7.724;2023-03-23T04:46:39;3.85;;;2.20;;
39264;SDS011;42646;51.910;7.724;2023-03-23T04:49:36;3.92;;;2.13;;
39264;SDS011;42646;51.910;7.724;2023-03-23T04:52:12;3.47;;;2.20;;
39264;SDS011;42646;51.910;7.724;2023-03-23T04:54:42;4.88;;;2.22;;
39264;SDS011;42646;51.910;7.724;2023-03-23T05:00:36;4.85;;;2.38;;
39264;SDS011;42646;51.910;7.724;2023-03-23T05:03:03;4.30;;;2.20;;
39264;SDS011;42646;51.910;7.724;2023-03-23T05:05:34;5.07;;;2.60;;
39264;SDS011;42646;51.910;7.724;2023-03-23T05:08:05;3.70;;;2.20;;
39264;SDS011;42646;51.910;7.724;2023-03-23T05:10:36;4.68;;;2.25;;
39264;SDS011;42646;51.910;7.724;2023-03-23T05:13:07;6.80;;;2.40;;
39264;SDS011;42646;51.910;7.724;2023-03-23T05:15:34;3.55;;;2.20;;
39264;SDS011;42646;51.910;7.724;2023-03-23T05:18:02;4.43;;;2.42;;
39264;SDS011;42646;51.910;7.724;2023-03-23T05:20:31;4.00;;;2.15;;
39264;SDS011;42646;51.910;7.724;2023-03-23T05:23:11;3.83;;;2.20;;
39264;SDS011;42646;51.910;7.724;2023-03-23T05:25:41;4.80;;;2.40;;
39264;SDS011;42646;51.910;7.724;2023-03-23T05:28:17;4.80;;;3.58;;
39264;SDS011;42646;51.910;7.724;2023-03-23T05:30:50;7.82;;;3.75;;
39264;SDS011;42646;51.910;7.724;2023-03-23T05:33:43;6.32;;;4.53;;
39264;SDS011;42646;51.910;7.724;2023-03-23T05:36:31;4.85;;;3.30;;
39264;SDS011;42646;51.910;7.724;2023-03-23T05:39:24;4.82;;;2.80;;
39264;SDS011;42646;51.910;7.724;2023-03-23T05:42:12;4.63;;;2.35;;
39264;SDS011;42646;51.910;7.724;2023-03-23T05:44:57;5.22;;;2.60;;
39264;SDS011;42646;51.910;7.724;2023-03-23T05:47:24;3.90;;;2.50;;
39264;SDS011;42646;51.910;7.724;2023-03-23T05:49:55;6.37;;;2.93;;
39264;SDS011;42646;51.910;7.724;2023-03-23T05:52:24;5.28;;;2.72;;
39264;SDS011;42646;51.910;7.724;2023-03-23T05:54:54;6.82;;;4.10;;
39264;SDS011;42646;51.910;7.724;2023-03-23T05:57:22;5.65;;;3.53;;
39264;SDS011;42646;51.910;7.724;2023-03-23T06:00:02;5.72;;;2.60;;
39264;SDS011;42646;51.910;7.724;2023-03-23T06:02:38;4.50;;;2.47;;
39264;SDS011;42646;51.910;7.724;2023-03-23T06:05:09;4.95;;;2.35;;
39264;SDS011;42646;51.910;7.724;2023-03-23T06:07:39;3.88;;;2.50;;
39264;SDS011;42646;51.910;7.724;2023-03-23T06:10:08;4.78;;;2.60;;
39264;SDS011;42646;51.910;7.724;2023-03-23T06:13:01;5.85;;;2.30;;
39264;SDS011;42646;51.910;7.724;2023-03-23T06:15:39;4.03;;;2.20;;
39264;SDS011;42646;51.910;7.724;2023-03-23T06:18:17;5.28;;;2.20;;
39264;SDS011;42646;51.910;7.724;2023-03-23T06:20:59;5.32;;;2.28;;
39264;SDS011;42646;51.910;7.724;2023-03-23T06:23:43;4.75;;;2.42;;
39264;SDS011;42646;51.910;7.724;2023-03-23T06:26:19;5.05;;;2.40;;
39264;SDS011;42646;51.910;7.724;2023-03-23T06:28:54;3.85;;;2.17;;
39264;SDS011;42646;51.910;7.724;2023-03-23T06:31:21;5.32;;;2.60;;
39264;SDS011;42646;51.910;7.724;2023-03-23T06:33:49;5.55;;;2.30;;
39264;SDS011;42646;51.910;7.724;2023-03-23T06:36:25;4.38;;;2.10;;
39264;SDS011;42646;51.910;7.724;2023-03-23T06:39:06;5.03;;;2.45;;
39264;SDS011;42646;51.910;7.724;2023-03-23T06:41:56;4.18;;;2.20;;
39264;SDS011;42646;51.910;7.724;2023-03-23T06:44:24;5.05;;;2.53;;
39264;SDS011;42646;51.910;7.724;2023-03-23T06:46:52;3.92;;;2.22;;
39264;SDS011;42646;51.910;7.724;2023-03-23T06:49:25;3.92;;;2.00;;
39264;SDS011;42646;51.910;7.724;2023-03-23T06:52:07;5.30;;;2.45;;
39264;SDS011;42646;51.910;7.724;2023-03-23T06:54:34;4.38;;;2.13;;
39264;SDS011;42646;51.910;7.724;2023-03-23T06:57:03;5.43;;;2.42;;
39264;SDS011;42646;51.910;7.724;2023-03-23T06:59:31;4.80;;;2.58;;
39264;SDS011;42646;51.910;7.724;2023-03-23T07:01:58;4.50;;;2.38;;
39264;SDS011;42646;51.910;7.724;2023-03-23T07:04:25;4.60;;;2.08;;
39264;SDS011;42646;51.910;7.724;2023-03-23T07:07:12;3.97;;;2.45;;
39264;SDS011;42646;51.910;7.724;2023-03-23T07:09:48;4.80;;;2.47;;
39264;SDS011;42646;51.910;7.724;2023-03-23T07:12:20;4.25;;;2.38;;
39264;SDS011;42646;51.910;7.724;2023-03-23T07:14:49;5.70;;;2.30;;
39264;SDS011;42646;51.910;7.724;2023-03-23T07:17:16;4.20;;;2.20;;
39264;SDS011;42646;51.910;7.724;2023-03-23T07:19:59;5.70;;;2.90;;
39264;SDS011;42646;51.910;7.724;2023-03-23T07:22:28;5.78;;;2.40;;
39264;SDS011;42646;51.910;7.724;2023-03-23T07:25:03;5.95;;;2.30;;
39264;SDS011;42646;51.910;7.724;2023-03-23T07:27:43;5.70;;;2.58;;
39264;SDS011;42646;51.910;7.724;2023-03-23T07:30:13;4.22;;;2.40;;
39264;SDS011;42646;51.910;7.724;2023-03-23T07:32:40;3.65;;;2.25;;
39264;SDS011;42646;51.910;7.724;2023-03-23T07:35:07;5.28;;;2.38;;
39264;SDS011;42646;51.910;7.724;2023-03-23T07:37:58;5.45;;;2.08;;
39264;SDS011;42646;51.910;7.724;2023-03-23T07:40:27;5.28;;;2.20;;
39264;SDS011;42646;51.910;7.724;2023-03-23T07:43:02;4.65;;;2.65;;
39264;SDS011;42646;51.910;7.724;2023-03-23T07:45:47;5.32;;;2.45;;
39264;SDS011;42646;51.910;7.724;2023-03-23T07:48:15;5.40;;;2.30;;
39264;SDS011;42646;51.910;7.724;2023-03-23T07:50:42;7.60;;;2.47;;
39264;SDS011;42646;51.910;7.724;2023-03-23T07:53:11;4.25;;;2.17;;
39264;SDS011;42646;51.910;7.724;2023-03-23T07:55:41;5.50;;;2.33;;
39264;SDS011;42646;51.910;7.724;2023-03-23T07:58:24;4.88;;;2.15;;
39264;SDS011;42646;51.910;7.724;2023-03-23T08:00:54;6.47;;;2.28;;
39264;SDS011;42646;51.910;7.724;2023-03-23T08:03:27;5.97;;;2.08;;
39264;SDS011;42646;51.910;7.724;2023-03-23T08:06:25;6.57;;;2.50;;
39264;SDS011;42646;51.910;7.724;2023-03-23T08:09:09;4.55;;;2.03;;
39264;SDS011;42646;51.910;7.724;2023-03-23T08:12:05;6.75;;;2.67;;
39264;SDS011;42646;51.910;7.724;2023-03-23T08:15:06;6.50;;;2.40;;
39264;SDS011;42646;51.910;7.724;2023-03-23T08:17:48;6.55;;;2.38;;
39264;SDS011;42646;51.910;7.724;2023-03-23T08:20:34;6.47;;;2.45;;
39264;SDS011;42646;51.910;7.724;2023-03-23T08:23:24;5.00;;;2.20;;
39264;SDS011;42646;51.910;7.724;2023-03-23T08:26:11;6.00;;;2.35;;
39264;SDS011;42646;51.910;7.724;2023-03-23T08:29:01;6.10;;;2.20;;
39264;SDS011;42646;51.910;7.724;2023-03-23T08:31:48;6.45;;;2.33;;
39264;SDS011;42646;51.910;7.724;2023-03-23T08:34:30;6.00;;;2.33;;
39264;SDS011;42646;51.910;7.724;2023-03-23T08:37:27;5.20;;;2.13;;
39264;SDS011;42646;51.910;7.724;2023-03-23T08:40:27;4.82;;;2.00;;
39264;SDS011;42646;51.910;7.724;2023-03-23T08:43:12;5.15;;;2.13;;
39264;SDS011;42646;51.910;7.724;2023-03-23T08:45:59;5.63;;;2.17;;
39264;SDS011;42646;51.910;7.724;2023-03-23T08:48:58;5.75;;;2.00;;
39264;SDS011;42646;51.910;7.724;2023-03-23T08:51:47;4.93;;;2.17;;
39264;SDS011;42646;51.910;7.724;2023-03-23T08:54:34;5.47;;;1.80;;
39264;SDS011;42646;51.910;7.724;2023-03-23T08:57:24;5.82;;;2.15;;
39264;SDS011;42646;51.910;7.724;2023-03-23T09:00:13;6.47;;;2.25;;
39264;SDS011;42646;51.910;7.724;2023-03-23T09:03:09;5.47;;;2.08;;
39264;SDS011;42646;51.910;7.724;2023-03-23T09:05:59;5.45;;;1.80;;
39264;SDS011;42646;51.910;7.724;2023-03-23T09:08:35;7.47;;;2.17;;
39264;SDS011;42646;51.910;7.724;2023-03-23T09:11:02;4.18;;;2.10;;
39264;SDS011;42646;51.910;7.724;2023-03-23T09:13:32;6.45;;;1.90;;
39264;SDS011;42646;51.910;7.724;2023-03-23T09:15:59;5.32;;;2.03;;
39264;SDS011;42646;51.910;7.724;2023-03-23T09:18:26;5.20;;;1.88;;
39264;SDS011;42646;51.910;7.724;2023-03-23T09:20:53;6.22;;;1.90;;
39264;SDS011;42646;51.910;7.724;2023-03-23T09:23:22;5.43;;;1.90;;
39264;SDS011;42646;51.910;7.724;2023-03-23T09:25:49;5.20;;;2.10;;
39264;SDS011;42646;51.910;7.724;2023-03-23T09:28:16;7.03;;;2.47;;
39264;SDS011;42646;51.910;7.724;2023-03-23T09:30:43;5.93;;;1.90;;
39264;SDS011;42646;51.910;7.724;2023-03-23T09:33:10;6.15;;;2.20;;
39264;SDS011;42646;51.910;7.724;2023-03-23T09:35:38;6.18;;;2.10;;
39264;SDS011;42646;51.910;7.724;2023-03-23T09:38:07;6.82;;;2.38;;
39264;SDS011;42646;51.910;7.724;2023-03-23T09:40:41;6.53;;;2.25;;
39264;SDS011;42646;51.910;7.724;2023-03-23T09:43:18;5.70;;;2.05;;
39264;SDS011;42646;51.910;7.724;2023-03-23T09:45:55;5.78;;;2.00;;
39264;SDS011;42646;51.910;7.724;2023-03-23T09:48:31;5.63;;;2.30;;
39264;SDS011;42646;51.910;7.724;2023-03-23T09:51:08;6.15;;;2.10;;
39264;SDS011;42646;51.910;7.724;2023-03-23T09:53:44;5.40;;;1.95;;
39264;SDS011;42646;51.910;7.724;2023-03-23T09:58:45;3.60;;;1.35;;
39264;SDS011;42646;51.910;7.724;2023-03-23T10:01:17;1.60;;;0.90;;
39264;SDS011;42646;51.910;7.724;2023-03-23T10:04:15;2.67;;;0.93;;
39264;SDS011;42646;51.910;7.724;2023-03-23T10:06:50;2.63;;;0.90;;
39264;SDS011;42646;51.910;7.724;2023-03-23T10:09:17;3.38;;;0.90;;
39264;SDS011;42646;51.910;7.724;2023-03-23T10:11:50;1.83;;;0.82;;
39264;SDS011;42646;51.910;7.724;2023-03-23T10:14:28;1.50;;;0.88;;
39264;SDS011;42646;51.910;7.724;2023-03-23T10:17:07;1.98;;;0.88;;
39264;SDS011;42646;51.910;7.724;2023-03-23T10:19:41;2.03;;;0.82;;
39264;SDS011;42646;51.910;7.724;2023-03-23T10:22:15;2.35;;;0.90;;
39264;SDS011;42646;51.910;7.724;2023-03-23T10:24:49;1.90;;;1.00;;
39264;SDS011;42646;51.910;7.724;2023-03-23T10:27:22;1.83;;;0.90;;
39264;SDS011;42646;51.910;7.724;2023-03-23T10:29:55;2.47;;;1.00;;
39264;SDS011;42646;51.910;7.724;2023-03-23T10:35:17;3.22;;;1.10;;
39264;SDS011;42646;51.910;7.724;2023-03-23T10:37:47;2.77;;;1.10;;
39264;SDS011;42646;51.910;7.724;2023-03-23T10:40:17;3.13;;;1.08;;
39264;SDS011;42646;51.910;7.724;2023-03-23T10:42:50;2.63;;;1.08;;
39264;SDS011;42646;51.910;7.724;2023-03-23T10:45:43;2.67;;;1.10;;
39264;SDS011;42646;51.910;7.724;2023-03-23T10:48:12;1.60;;;0.90;;
39264;SDS011;42646;51.910;7.724;2023-03-23T10:50:48;2.85;;;1.10;;
39264;SDS011;42646;51.910;7.724;2023-03-23T10:53:21;2.72;;;1.08;;
39264;SDS011;42646;51.910;7.724;2023-03-23T10:55:49;2.83;;;1.10;;
39264;SDS011;42646;51.910;7.724;2023-03-23T10:58:23;3.75;;;1.17;;
39264;SDS011;42646;51.910;7.724;2023-03-23T11:00:54;3.55;;;1.20;;
39264;SDS011;42646;51.910;7.724;2023-03-23T11:03:29;4.65;;;1.50;;
39264;SDS011;42646;51.910;7.724;2023-03-23T11:06:05;2.45;;;1.02;;
39264;SDS011;42646;51.910;7.724;2023-03-23T11:08:34;3.75;;;1.10;;
39264;SDS011;42646;51.910;7.724;2023-03-23T11:11:10;3.40;;;1.45;;
39264;SDS011;42646;51.910;7.724;2023-03-23T11:13:43;4.03;;;1.20;;
39264;SDS011;42646;51.910;7.724;2023-03-23T11:16:21;3.63;;;1.30;;
39264;SDS011;42646;51.910;7.724;2023-03-23T11:18:50;3.25;;;1.17;;
39264;SDS011;42646;51.910;7.724;2023-03-23T11:21:19;4.57;;;1.48;;
39264;SDS011;42646;51.910;7.724;2023-03-23T11:23:48;4.15;;;1.30;;
39264;SDS011;42646;51.910;7.724;2023-03-23T11:26:18;5.32;;;1.38;;
39264;SDS011;42646;51.910;7.724;2023-03-23T11:28:51;4.63;;;1.30;;
39264;SDS011;42646;51.910;7.724;2023-03-23T11:31:21;4.97;;;1.20;;
39264;SDS011;42646;51.910;7.724;2023-03-23T11:33:55;4.53;;;1.25;;
39264;SDS011;42646;51.910;7.724;2023-03-23T11:36:29;4.72;;;1.30;;
39264;SDS011;42646;51.910;7.724;2023-03-23T11:38:59;4.65;;;1.40;;
39264;SDS011;42646;51.910;7.724;2023-03-23T11:41:31;3.60;;;1.30;;
39264;SDS011;42646;51.910;7.724;2023-03-23T11:44:07;3.78;;;1.20;;
39264;SDS011;42646;51.910;7.724;2023-03-23T11:46:39;5.28;;;1.27;;
39264;SDS011;42646;51.910;7.724;2023-03-23T11:49:15;3.28;;;1.30;;
39264;SDS011;42646;51.910;7.724;2023-03-23T11:51:51;3.30;;;1.33;;
39264;SDS011;42646;51.910;7.724;2023-03-23T11:54:24;5.18;;;1.50;;
39264;SDS011;42646;51.910;7.724;2023-03-23T11:56:56;4.45;;;1.40;;
39264;SDS011;42646;51.910;7.724;2023-03-23T11:59:28;3.92;;;1.13;;
39264;SDS011;42646;51.910;7.724;2023-03-23T12:01:59;4.75;;;1.38;;
39264;SDS011;42646;51.910;7.724;2023-03-23T12:04:45;3.45;;;1.20;;
39264;SDS011;42646;51.910;7.724;2023-03-23T12:07:30;3.70;;;1.27;;
39264;SDS011;42646;51.910;7.724;2023-03-23T12:10:08;6.32;;;1.95;;
39264;SDS011;42646;51.910;7.724;2023-03-23T12:12:44;4.13;;;1.30;;
39264;SDS011;42646;51.910;7.724;2023-03-23T12:15:21;2.50;;;1.20;;
39264;SDS011;42646;51.910;7.724;2023-03-23T12:17:54;2.45;;;1.13;;
39264;SDS011;42646;51.910;7.724;2023-03-23T12:20:32;4.57;;;1.30;;
39264;SDS011;42646;51.910;7.724;2023-03-23T12:23:11;4.57;;;1.30;;
39264;SDS011;42646;51.910;7.724;2023-03-23T12:26:01;3.55;;;1.40;;
39264;SDS011;42646;51.910;7.724;2023-03-23T12:28:50;2.97;;;1.30;;
39264;SDS011;42646;51.910;7.724;2023-03-23T12:31:49;3.45;;;1.40;;
39264;SDS011;42646;51.910;7.724;2023-03-23T12:34:28;2.72;;;1.30;;
39264;SDS011;42646;51.910;7.724;2023-03-23T12:37:08;2.60;;;1.33;;
39264;SDS011;42646;51.910;7.724;2023-03-23T12:40:01;4.03;;;1.40;;
39264;SDS011;42646;51.910;7.724;2023-03-23T12:45:13;4.10;;;1.50;;
39264;SDS011;42646;51.910;7.724;2023-03-23T12:47:49;4.60;;;1.67;;
39264;SDS011;42646;51.910;7.724;2023-03-23T12:50:26;4.50;;;1.95;;
39264;SDS011;42646;51.910;7.724;2023-03-23T12:52:57;3.53;;;1.30;;
39264;SDS011;42646;51.910;7.724;2023-03-23T12:55:30;3.83;;;1.70;;
39264;SDS011;42646;51.910;7.724;2023-03-23T13:00:33;3.05;;;1.30;;
39264;SDS011;42646;51.910;7.724;2023-03-23T13:03:17;4.47;;;1.55;;
39264;SDS011;42646;51.910;7.724;2023-03-23T13:05:52;3.45;;;1.67;;
39264;SDS011;42646;51.910;7.724;2023-03-23T13:10:54;3.13;;;1.40;;
39264;SDS011;42646;51.910;7.724;2023-03-23T13:13:26;3.08;;;1.50;;
39264;SDS011;42646;51.910;7.724;2023-03-23T13:16:07;3.23;;;1.80;;
39264;SDS011;42646;51.910;7.724;2023-03-23T13:21:41;2.67;;;1.60;;
39264;SDS011;42646;51.910;7.724;2023-03-23T13:24:12;4.32;;;1.67;;
39264;SDS011;42646;51.910;7.724;2023-03-23T13:26:42;3.15;;;1.60;;
39264;SDS011;42646;51.910;7.724;2023-03-23T13:29:12;5.32;;;1.90;;
39264;SDS011;42646;51.910;7.724;2023-03-23T13:31:41;4.45;;;2.42;;
39264;SDS011;42646;51.910;7.724;2023-03-23T13:34:15;4.63;;;2.60;;
39264;SDS011;42646;51.910;7.724;2023-03-23T13:36:44;5.50;;;3.30;;
39264;SDS011;42646;51.910;7.724;2023-03-23T13:39:20;5.78;;;3.60;;
39264;SDS011;42646;51.910;7.724;2023-03-23T13:41:59;5.93;;;3.95;;
39264;SDS011;42646;51.910;7.724;2023-03-23T13:44:40;6.68;;;5.00;;
39264;SDS011;42646;51.910;7.724;2023-03-23T13:47:16;6.32;;;4.82;;
39264;SDS011;42646;51.910;7.724;2023-03-23T13:49:51;5.78;;;4.63;;
39264;SDS011;42646;51.910;7.724;2023-03-23T13:52:48;6.35;;;5.10;;
39264;SDS011;42646;51.910;7.724;2023-03-23T13:55:20;7.25;;;5.10;;
39264;SDS011;42646;51.910;7.724;2023-03-23T13:57:54;6.13;;;4.60;;
39264;SDS011;42646;51.910;7.724;2023-03-23T14:00:33;6.85;;;4.80;;
39264;SDS011;42646;51.910;7.724;2023-03-23T14:03:09;5.63;;;4.30;;
39264;SDS011;42646;51.910;7.724;2023-03-23T14:05:41;6.15;;;4.38;;
39264;SDS011;42646;51.910;7.724;2023-03-23T14:08:13;6.88;;;4.28;;
39264;SDS011;42646;51.910;7.724;2023-03-23T14:10:52;9.00;;;5.03;;
39264;SDS011;42646;51.910;7.724;2023-03-23T14:13:23;5.70;;;4.18;;
39264;SDS011;42646;51.910;7.724;2023-03-23T14:15:57;6.75;;;4.70;;
39264;SDS011;42646;51.910;7.724;2023-03-23T14:18:28;6.13;;;5.10;;
39264;SDS011;42646;51.910;7.724;2023-03-23T14:20:59;6.53;;;5.00;;
39264;SDS011;42646;51.910;7.724;2023-03-23T14:23:26;6.25;;;5.55;;
39264;SDS011;42646;51.910;7.724;2023-03-23T14:25:56;6.55;;;5.25;;
39264;SDS011;42646;51.910;7.724;2023-03-23T14:28:30;8.32;;;5.45;;
39264;SDS011;42646;51.910;7.724;2023-03-23T14:30:59;6.45;;;5.40;;
39264;SDS011;42646;51.910;7.724;2023-03-23T14:33:25;7.03;;;5.32;;
39264;SDS011;42646;51.910;7.724;2023-03-23T14:35:56;6.50;;;5.38;;
39264;SDS011;42646;51.910;7.724;2023-03-23T14:38:25;7.03;;;5.72;;
39264;SDS011;42646;51.910;7.724;2023-03-23T14:41:00;7.68;;;5.47;;
39264;SDS011;42646;51.910;7.724;2023-03-23T14:43:29;7.53;;;5.32;;
39264;SDS011;42646;51.910;7.724;2023-03-23T14:46:00;6.15;;;4.90;;
39264;SDS011;42646;51.910;7.724;2023-03-23T14:48:28;7.50;;;4.80;;
39264;SDS011;42646;51.910;7.724;2023-03-23T14:50:56;5.78;;;4.28;;
39264;SDS011;42646;51.910;7.724;2023-03-23T14:53:28;7.40;;;4.10;;
39264;SDS011;42646;51.910;7.724;2023-03-23T14:56:01;7.43;;;4.18;;
39264;SDS011;42646;51.910;7.724;2023-03-23T14:58:32;6.03;;;4.38;;
39264;SDS011;42646;51.910;7.724;2023-03-23T15:01:02;6.65;;;4.05;;
39264;SDS011;42646;51.910;7.724;2023-03-23T15:03:33;6.80;;;3.80;;
39264;SDS011;42646;51.910;7.724;2023-03-23T15:06:04;7.67;;;4.20;;
39264;SDS011;42646;51.910;7.724;2023-03-23T15:08:34;6.63;;;4.15;;
39264;SDS011;42646;51.910;7.724;2023-03-23T15:11:03;6.68;;;3.70;;
39264;SDS011;42646;51.910;7.724;2023-03-23T15:13:34;6.07;;;3.20;;
39264;SDS011;42646;51.910;7.724;2023-03-23T15:16:03;7.25;;;3.60;;
39264;SDS011;42646;51.910;7.724;2023-03-23T15:18:33;6.60;;;3.20;;
39264;SDS011;42646;51.910;7.724;2023-03-23T15:21:18;6.32;;;3.10;;
39264;SDS011;42646;51.910;7.724;2023-03-23T15:23:49;6.13;;;2.80;;
39264;SDS011;42646;51.910;7.724;2023-03-23T15:26:21;9.23;;;3.22;;
39264;SDS011;42646;51.910;7.724;2023-03-23T15:29:01;6.28;;;2.90;;
39264;SDS011;42646;51.910;7.724;2023-03-23T15:31:38;7.60;;;3.47;;
39264;SDS011;42646;51.910;7.724;2023-03-23T15:34:11;6.85;;;3.60;;
39264;SDS011;42646;51.910;7.724;2023-03-23T15:36:41;8.20;;;3.63;;
39264;SDS011;42646;51.910;7.724;2023-03-23T15:39:11;8.23;;;3.72;;
39264;SDS011;42646;51.910;7.724;2023-03-23T15:41:45;6.82;;;3.42;;
39264;SDS011;42646;51.910;7.724;2023-03-23T15:44:20;8.10;;;4.32;;
39264;SDS011;42646;51.910;7.724;2023-03-23T15:46:50;7.70;;;3.92;;
39264;SDS011;42646;51.910;7.724;2023-03-23T15:49:18;5.80;;;3.30;;
39264;SDS011;42646;51.910;7.724;2023-03-23T15:51:47;5.82;;;2.42;;
39264;SDS011;42646;51.910;7.724;2023-03-23T15:54:15;5.05;;;2.33;;
39264;SDS011;42646;51.910;7.724;2023-03-23T15:56:42;5.72;;;2.30;;
39264;SDS011;42646;51.910;7.724;2023-03-23T15:59:11;5.35;;;2.10;;
39264;SDS011;42646;51.910;7.724;2023-03-23T16:01:40;4.47;;;2.42;;
39264;SDS011;42646;51.910;7.724;2023-03-23T16:04:09;5.25;;;2.40;;
39264;SDS011;42646;51.910;7.724;2023-03-23T16:06:39;5.10;;;2.05;;
39264;SDS011;42646;51.910;7.724;2023-03-23T16:09:12;5.05;;;1.85;;
39264;SDS011;42646;51.910;7.724;2023-03-23T16:11:42;5.05;;;2.08;;
39264;SDS011;42646;51.910;7.724;2023-03-23T16:14:10;4.07;;;2.00;;
39264;SDS011;42646;51.910;7.724;2023-03-23T16:16:40;5.45;;;2.10;;
39264;SDS011;42646;51.910;7.724;2023-03-23T16:19:13;4.18;;;2.15;;
39264;SDS011;42646;51.910;7.724;2023-03-23T16:21:42;4.50;;;1.90;;
39264;SDS011;42646;51.910;7.724;2023-03-23T16:24:10;4.05;;;2.20;;
39264;SDS011;42646;51.910;7.724;2023-03-23T16:26:38;6.43;;;2.83;;
39264;SDS011;42646;51.910;7.724;2023-03-23T16:29:12;3.78;;;2.30;;
39264;SDS011;42646;51.910;7.724;2023-03-23T16:31:54;6.32;;;2.58;;
39264;SDS011;42646;51.910;7.724;2023-03-23T16:34:22;5.18;;;2.63;;
39264;SDS011;42646;51.910;7.724;2023-03-23T16:36:50;6.47;;;2.70;;
39264;SDS011;42646;51.910;7.724;2023-03-23T16:39:18;6.68;;;2.90;;
39264;SDS011;42646;51.910;7.724;2023-03-23T16:41:47;4.53;;;2.28;;
39264;SDS011;42646;51.910;7.724;2023-03-23T16:44:16;7.30;;;2.88;;